ADWJOINT BASE ANDREWS
METARs for airports near ADW, sorted by distance:
N 0 nm 279' KADW 221955Z 32008KT 10SM CLR 17/M03 A3005
W 8 nm 14' KDCA 221952Z 32012G21KT 280V350 10SM FEW070 18/M02 A3008
N 10 nm 48' KCGS 221940Z 34008KT 10SM CLR 16/M03 A3009
W 15 nm 73' KDAA 221955Z 32007KT 10SM CLR 18/M05 A3006
N 17 nm 150' KFME 221939Z 25007KT 10SM CLR 16/M03 A3010
N 23 nm 143' KBWI 221954Z 35008KT 320V030 10SM FEW065 17/M03 A3006
NW 25 nm 538' KGAI 221956Z 00000KT 10SM CLR 16/M03 A3008
SW 27 nm 10' KNYG 221956Z VRB05KT 10SM FEW070 17/00 A3009
W 28 nm 312' KIAD 221952Z 33007KT 300V360 10SM FEW065 18/M03 A3008
W 30 nm 192' KHEF 221956Z VRB06KT 10SM FEW080 17/M01 A3009
NW 36 nm 389' KJYO 221955Z 35008KT 320V020 10SM CLR 16/00 A3009
SW 37 nm 211' KRMN 221955Z 33007KT 10SM CLR 17/M06 A3009
E 37 nm 72' KESN 221950Z 35010KT 10SM CLR 16/M02 A3008
NE 37 nm 21' KMTN 221954Z 12004KT 120V340 10SM CLR 16/02 A3008
SE 38 nm 38' KNHK 221952Z 07006KT 10SM FEW160 16/M01 A3009
W 41 nm 336' KHWY 221955Z 35003KT 10SM CLR 18/M06 A3008
E 42 nm 19' KCGE 221935Z 32009G15KT 10SM CLR 15/M02 A3009
SW 42 nm 85' KEZF 221955Z 34003KT 10SM CLR 17/M03 A3008
NW 43 nm 308' KFDK 221947Z 30007KT 10SM CLR 18/M03 A3007
N 48 nm 789' KDMW 221930Z 33007G14KT 10SM CLR 17/M04 A3007
W 49 nm 315' KCJR 221955Z 31007KT 10SM CLR 17/M04 A3009
NE 51 nm 44' KAPG 221951Z 34007KT 10SM CLR 17/M02 A3006
S 57 nm 135' KXSA 221955Z 00000KT 10SM CLR 15/M02 A3011
W 62 nm 726' KOKV 221955Z 23007KT 10SM SCT085 15/M02 A3006
NW 62 nm 564' KMRB 221953Z VRB04KT 10SM CLR 17/M04 A3005
SW 64 nm 464' KOMH 221955Z 04003KT 10SM CLR 15/M01 A3011
W 65 nm 703' KFRR 222015Z 35010G15KT 10SM SCT085 A3006
N 66 nm 494' KTHV 221953Z 32004KT 10SM CLR 16/M02 A3006
NW 67 nm 703' KHGR 221953Z 33008G17KT 10SM CLR 17/M03 A3006
E 68 nm 28' KDOV 221955Z 32009KT 10SM CLR 17/M03 A3004
SE 69 nm 52' KSBY 221954Z 30008KT 10SM CLR 15/M04 A3008
SW 70 nm 493' KLKU 221955Z 01011G17KT 350V070 10SM CLR 16/M02 A3010
E 71 nm 53' KGED 221954Z 31005KT 10SM CLR 16/M03 A3007
S 71 nm 206' KOFP 221954Z 10SM CLR 17/M02 A3011
SE 71 nm 5' KTGI 221955Z 30013KT 10SM CLR 14/03 A3011
SW 72 nm 454' KGVE 221955Z 01004KT 10SM CLR 16/M01 A3009
W 77 nm 902' KLUA 221955Z 33006G16KT 10SM CLR 18/M01 A3007
S 77 nm 20' KFYJ 221955Z 00000KT 10SM CLR 15/M03 A3011
NE 78 nm 79' KILG 221951Z 32008G20KT 10SM CLR 16/M02 A3007
S 81 nm 167' KRIC 221954Z 35007KT 300V010 10SM FEW020 FEW180 17/M03 A3010
N 83 nm 402' KLNS 221953Z 36006G17KT 10SM CLR 17/01 A3005
N 83 nm 310' KMDT 221956Z VRB06KT 10SM FEW070 17/M02 A3005
NE 84 nm 660' KMQS 221955Z 28011KT 10SM CLR 15/M02 A3006
SE 84 nm 40' KWAL 221954Z 12008KT 10SM CLR 13/00 A3010
N 84 nm 346' KCXY 221956Z 35005KT 10SM CLR 18/M03 A3005
SW 84 nm 640' KCHO 221953Z 14005KT 10SM CLR 17/M03 A3008
E 87 nm 15' KOXB 221953Z 11008KT 10SM CLR 14/01 A3009
SE 87 nm 47' KMFV 221955Z 00000KT 10SM BKN050 OVC060 A3011
S 89 nm 236' KFCI 221156Z 36006KT 10SM CLR 06/M01 A3013
NE 90 nm 84' KMIV 221954Z 10SM CLR 16/M04 A3005
TAFs for airports near ADW, sorted by distance:
N 0 nm 279' KADW TAF TAF KADW 221700Z 2217/2323 31012KT 9999 FEW060 QNH3011INS
  BECMG 2300/2301 VRB03KT 9999 SKC QNH3012INS
  BECMG 2312/2313 21012KT 9999 BKN250 QNH3008INS
  BECMG 2317/2318 19012G22KT 9999 FEW120 SCT250 QNH2998INS TX17/2220Z TN06/2310Z
W 8 nm 14' KDCA KDCA 221723Z 2218/2324 31009G15KT P6SM SCT070
  FM222100 34008KT P6SM FEW060
  FM230200 00000KT P6SM SKC
  FM231500 20007KT P6SM SCT250
  FM231900 20010G17KT P6SM SKC
W 15 nm 73' KDAA TAF KDAA 222000Z 2220/2402 34012KT 9999 FEW060 QNH3009INS
  BECMG 2300/2301 VRB05KT 9999 SKC QNH3012INS
  BECMG 2312/2313 20009KT 9999 SCT250 QNH3006INS
  BECMG 2318/2319 19012KT 9999 FEW060 SCT250 QNH2998INS TX21/2320Z TN04/2310Z LAST NO
  AMDS AFT 2301 NEXT 2312
N 23 nm 143' KBWI KBWI 221723Z 2218/2324 30008G16KT P6SM FEW060
  FM222100 34007KT P6SM FEW060
  FM230200 00000KT P6SM SKC
  FM231500 20007KT P6SM SCT250
  FM231900 20010G17KT P6SM SKC
SW 27 nm 10' KNYG TAF KNYG 2209/2309 33009KT 9999 SCT250 QNH3008INS
  BECMG 2216/2218 35009KT 9999 SCT065 QNH3009INS
  FM230000 VRB06KT 9999 SKC QNH3010INS T02/2209Z T18/2220Z
W 28 nm 312' KIAD KIAD 222000Z 2220/2324 33007KT P6SM FEW060
  FM230200 00000KT P6SM SKC
  FM231500 20007KT P6SM SCT250
  FM231900 20010G17KT P6SM SKC
NE 37 nm 21' KMTN KMTN 221723Z 2218/2318 27005KT P6SM FEW050
  FM230300 00000KT P6SM SKC
  FM231500 18008KT P6SM FEW250
SE 38 nm 38' KNHK TAF KNHK 2215/2315 02011KT 9999 FEW160 FEW250 QNH3008INS
  BECMG 2221/2223 VRB05KT 9999 FEW060 QNH3010INS
  BECMG 2304/2306 26008KT 9999 SKC QNH3015INS TX17/2220Z TN07/2310Z FN20065
NW 62 nm 564' KMRB KMRB 221723Z 2218/2318 33010KT P6SM FEW050
  FM230200 00000KT P6SM SKC
  FM231500 20007KT P6SM FEW250
E 68 nm 28' KDOV TAF KDOV 220800Z 2208/2314 32009KT 9999 SKC QNH3003INS WND 34012KT AFT 2214
  BECMG 2223/2224 17009KT 9999 SKC QNH3012INS TX16/2220Z TN04/2208Z
SE 69 nm 52' KSBY KSBY 221738Z 2218/2318 36010KT P6SM SKC
  FM230000 VRB02KT P6SM SKC
  FM231500 19007KT P6SM SCT250
NE 78 nm 79' KILG KILG 221725Z 2218/2318 32010G16KT P6SM FEW060
  FM222100 32008KT P6SM SKC
  FM230200 VRB03KT P6SM SKC
  FM231300 18006KT P6SM FEW060
  FM231700 18008G18KT P6SM FEW060
S 81 nm 167' KRIC KRIC 221738Z 2218/2318 01010KT P6SM SKC
  FM230000 VRB03KT P6SM SKC
  FM231500 21008KT P6SM SCT250
N 83 nm 402' KLNS KLNS 221740Z 2218/2318 31011G18KT P6SM SKC
  FM222300 34004KT P6SM SKC
  FM230000 00000KT P6SM SKC
  FM231200 18004KT P6SM BKN180
  FM231500 20009G16KT P6SM BKN130 BKN220
N 83 nm 310' KMDT KMDT 221800Z 2218/2318 30009G17KT P6SM SKC
  FM222300 31005KT P6SM SKC
  FM230000 VRB02KT P6SM SKC
  FM231200 17004KT P6SM BKN180
  FM231500 20009G16KT P6SM BKN130 BKN220
SW 84 nm 640' KCHO KCHO 221723Z 2218/2318 03008KT P6SM SCT060
  FM222300 11004KT P6SM FEW060
  FM230200 00000KT P6SM FEW250
  FM231500 21007KT P6SM SKC
NE 90 nm 84' KMIV KMIV 221725Z 2218/2318 32010G18KT P6SM FEW060
  FM222100 32008KT P6SM SKC
  FM230000 VRB02KT P6SM SKC
  FM231300 18006KT P6SM FEW060
  FM231700 18007G16KT P6SM FEW060

Shortcut to this page: http://wxbay.com.

Data may contain errors.